createdAt,value
2022-12-03T00:01:29.940Z,37.73
2022-12-03T00:03:59.184Z,36.40
2022-12-03T00:06:32.929Z,36.90
2022-12-03T00:09:05.009Z,36.53
2022-12-03T00:11:33.165Z,38.30
2022-12-03T00:14:00.964Z,37.40
2022-12-03T00:16:28.775Z,38.90
2022-12-03T00:18:57.311Z,36.20
2022-12-03T00:21:26.497Z,38.97
2022-12-03T00:23:54.694Z,36.40
2022-12-03T00:26:22.722Z,37.27
2022-12-03T00:28:51.557Z,37.33
2022-12-03T00:31:21.316Z,36.03
2022-12-03T00:33:49.415Z,37.50
2022-12-03T00:36:17.386Z,36.90
2022-12-03T00:38:46.820Z,38.53
2022-12-03T00:41:15.059Z,35.57
2022-12-03T00:43:42.966Z,36.70
2022-12-03T00:46:10.726Z,37.60
2022-12-03T00:48:39.086Z,38.00
2022-12-03T00:51:07.036Z,37.93
2022-12-03T00:53:35.641Z,38.03
2022-12-03T00:56:04.988Z,35.20
2022-12-03T00:58:32.940Z,37.77
2022-12-03T01:01:00.719Z,36.43
2022-12-03T01:03:29.188Z,36.20
2022-12-03T01:05:57.098Z,37.77
2022-12-03T01:08:24.868Z,38.37
2022-12-03T01:10:53.130Z,39.47
2022-12-03T01:13:22.524Z,36.87
2022-12-03T01:15:50.283Z,39.47
2022-12-03T01:18:18.766Z,37.67
2022-12-03T01:20:46.468Z,38.20
2022-12-03T01:23:14.631Z,40.57
2022-12-03T01:25:42.417Z,38.47
2022-12-03T01:28:10.260Z,40.50
2022-12-03T01:30:53.583Z,41.93
2022-12-03T01:33:21.505Z,39.97
2022-12-03T01:35:49.342Z,47.10
2022-12-03T01:38:17.676Z,41.87
2022-12-03T01:40:45.636Z,44.97
2022-12-03T01:43:13.933Z,42.70
2022-12-03T01:45:43.009Z,42.30
2022-12-03T01:48:13.366Z,43.13
2022-12-03T01:50:41.428Z,40.70
2022-12-03T01:53:12.264Z,40.90
2022-12-03T01:55:40.250Z,44.00
2022-12-03T01:58:08.145Z,41.90
2022-12-03T02:00:36.499Z,41.07
2022-12-03T02:03:12.796Z,40.90
2022-12-03T02:05:40.938Z,42.63
2022-12-03T02:08:23.532Z,40.03
2022-12-03T02:10:52.156Z,42.40
2022-12-03T02:13:20.451Z,39.70
2022-12-03T02:15:48.707Z,40.27
2022-12-03T02:18:18.133Z,39.10
2022-12-03T02:20:48.289Z,39.20
2022-12-03T02:23:22.531Z,39.40
2022-12-03T02:25:51.962Z,42.77
2022-12-03T02:28:19.966Z,42.83
2022-12-03T02:30:48.077Z,41.00
2022-12-03T02:33:16.151Z,38.77
2022-12-03T02:35:44.062Z,38.90
2022-12-03T02:38:13.513Z,37.30
2022-12-03T02:40:41.907Z,37.87
2022-12-03T02:43:11.374Z,38.83
2022-12-03T02:45:40.489Z,43.53
2022-12-03T02:48:10.403Z,37.43
2022-12-03T02:50:40.151Z,38.40
2022-12-03T02:53:09.224Z,38.17
2022-12-03T02:55:37.997Z,41.60
2022-12-03T02:58:06.106Z,39.60
2022-12-03T03:00:36.591Z,37.70
2022-12-03T03:03:05.293Z,37.30
2022-12-03T03:05:34.172Z,38.33
2022-12-03T03:08:02.291Z,37.13
2022-12-03T03:10:30.699Z,35.50
2022-12-03T03:12:58.774Z,41.13
2022-12-03T03:15:26.895Z,38.03
2022-12-03T03:17:56.280Z,36.40
2022-12-03T03:20:24.063Z,38.47
2022-12-03T03:22:52.195Z,38.23
2022-12-03T03:25:22.395Z,37.40
2022-12-03T03:27:50.507Z,37.23
2022-12-03T03:30:18.585Z,37.07
2022-12-03T03:32:46.655Z,37.47
2022-12-03T03:35:15.728Z,38.83
2022-12-03T03:38:06.053Z,40.23
2022-12-03T03:40:34.078Z,40.50
2022-12-03T03:43:02.143Z,36.80
2022-12-03T03:45:30.259Z,37.33
2022-12-03T03:47:59.271Z,38.57
2022-12-03T03:50:29.187Z,38.60
2022-12-03T03:52:57.731Z,36.13
2022-12-03T03:55:25.690Z,36.97
2022-12-03T03:57:53.585Z,37.70
2022-12-03T04:00:21.453Z,36.23
2022-12-03T04:02:49.336Z,37.40
2022-12-03T04:05:18.746Z,36.90
2022-12-03T04:07:48.440Z,37.73
2022-12-03T04:10:33.040Z,37.03
2022-12-03T04:13:01.366Z,39.00
2022-12-03T04:15:29.437Z,37.97
2022-12-03T04:18:15.375Z,36.27
2022-12-03T04:20:43.097Z,37.63
2022-12-03T04:23:11.266Z,39.50
2022-12-03T04:25:56.808Z,36.80
2022-12-03T04:28:41.840Z,37.40
2022-12-03T04:31:23.962Z,38.20
2022-12-03T04:34:09.048Z,37.90
2022-12-03T04:36:37.023Z,37.80
2022-12-03T04:43:05.860Z,36.90
2022-12-03T04:45:33.591Z,38.03
2022-12-03T04:48:01.531Z,38.63
2022-12-03T04:50:29.166Z,38.80
2022-12-03T04:52:56.957Z,36.97
2022-12-03T04:55:25.782Z,38.03
2022-12-03T04:57:53.749Z,40.07
2022-12-03T05:00:22.998Z,37.27
2022-12-03T05:02:51.071Z,36.30
2022-12-03T05:05:18.694Z,36.40
2022-12-03T05:07:46.712Z,38.70
2022-12-03T05:10:14.647Z,37.83
2022-12-03T05:12:42.295Z,39.17
2022-12-03T05:15:10.204Z,37.50
2022-12-03T05:17:39.951Z,39.90
2022-12-03T05:20:27.253Z,41.53
2022-12-03T05:22:55.334Z,38.83
2022-12-03T05:25:22.982Z,39.03
2022-12-03T05:27:50.790Z,39.63
2022-12-03T05:30:18.784Z,40.47
2022-12-03T05:32:47.754Z,43.33
2022-12-03T05:35:15.470Z,40.77
2022-12-03T05:37:43.553Z,41.70
2022-12-03T05:40:11.740Z,40.50
2022-12-03T05:42:53.911Z,41.23
2022-12-03T05:45:21.953Z,43.30
2022-12-03T05:47:51.058Z,45.07
2022-12-03T05:50:19.646Z,42.53
2022-12-03T05:52:47.270Z,43.60
2022-12-03T05:55:15.205Z,45.27
2022-12-03T05:57:43.035Z,43.37
2022-12-03T06:00:14.312Z,48.40
2022-12-03T06:02:42.540Z,48.30
2022-12-03T06:05:12.124Z,46.30
2022-12-03T06:07:40.039Z,48.50
2022-12-03T06:10:09.170Z,48.73
2022-12-03T06:12:36.854Z,50.87
2022-12-03T06:15:04.672Z,48.13
2022-12-03T06:17:33.753Z,48.90
2022-12-03T06:20:01.359Z,54.10
2022-12-03T06:22:31.013Z,50.80
2022-12-03T06:25:04.908Z,51.20
2022-12-03T06:27:34.790Z,48.67
2022-12-03T06:30:02.559Z,53.37
2022-12-03T06:32:31.563Z,51.80
2022-12-03T06:34:59.160Z,51.57
2022-12-03T06:37:27.413Z,52.63
2022-12-03T06:39:56.332Z,59.30
2022-12-03T06:42:23.960Z,56.83
2022-12-03T06:44:51.964Z,55.80
2022-12-03T06:47:19.822Z,58.13
2022-12-03T06:49:47.396Z,57.73
2022-12-03T06:52:15.817Z,54.00
2022-12-03T06:54:43.457Z,53.80
2022-12-03T06:57:12.465Z,55.83
2022-12-03T06:59:40.343Z,54.13
2022-12-03T07:02:07.975Z,58.63
2022-12-03T07:04:35.603Z,57.47
2022-12-03T07:07:03.529Z,53.73
2022-12-03T07:09:31.148Z,55.60
2022-12-03T07:11:59.046Z,55.17
2022-12-03T07:14:28.189Z,53.27
2022-12-03T07:16:55.840Z,56.77
2022-12-03T07:19:27.574Z,54.63
2022-12-03T07:21:58.792Z,57.00
2022-12-03T07:24:26.789Z,55.30
2022-12-03T07:26:54.741Z,59.60
2022-12-03T07:29:22.467Z,57.40
2022-12-03T07:31:51.508Z,55.60
2022-12-03T07:34:19.619Z,60.90
2022-12-03T07:36:47.570Z,60.30
2022-12-03T07:39:15.989Z,59.73
2022-12-03T07:41:43.964Z,60.40
2022-12-03T07:44:14.806Z,56.40
2022-12-03T07:46:42.995Z,60.93
2022-12-03T07:49:13.376Z,60.50
2022-12-03T07:51:41.244Z,62.57
2022-12-03T07:54:09.289Z,63.60
2022-12-03T07:56:37.204Z,60.73
2022-12-03T07:59:04.843Z,59.17
2022-12-03T08:01:32.578Z,61.00
2022-12-03T08:04:00.470Z,59.47
2022-12-03T08:06:29.512Z,59.27
2022-12-03T08:08:57.083Z,59.40
2022-12-03T08:11:25.110Z,57.77
2022-12-03T08:13:52.716Z,63.37
2022-12-03T08:16:21.614Z,64.83
2022-12-03T08:18:50.105Z,62.10
2022-12-03T08:21:19.357Z,62.13
2022-12-03T08:23:48.835Z,62.30
2022-12-03T08:26:22.910Z,62.23
2022-12-03T08:28:50.942Z,66.57
2022-12-03T08:31:20.097Z,67.70
2022-12-03T08:33:48.678Z,61.00
2022-12-03T08:36:19.928Z,60.80
2022-12-03T08:38:53.283Z,66.23
2022-12-03T08:41:41.277Z,63.53
2022-12-03T08:44:15.988Z,65.37
2022-12-03T08:46:43.567Z,62.73
2022-12-03T08:49:11.931Z,65.27
2022-12-03T08:51:39.589Z,61.03
2022-12-03T08:54:12.999Z,66.77
2022-12-03T08:56:40.647Z,67.00
2022-12-03T08:59:19.628Z,65.90
2022-12-03T09:01:48.130Z,65.30
2022-12-03T09:04:21.144Z,62.30
2022-12-03T09:06:49.217Z,61.70
2022-12-03T09:09:18.407Z,63.77
2022-12-03T09:11:46.045Z,64.90
2022-12-03T09:14:18.563Z,65.27
2022-12-03T09:16:46.954Z,68.40
2022-12-03T09:19:14.687Z,66.80
2022-12-03T09:21:42.336Z,66.13
2022-12-03T09:24:10.042Z,65.60
2022-12-03T09:26:39.092Z,64.80
2022-12-03T09:29:22.249Z,64.00
2022-12-03T09:31:49.940Z,60.87
2022-12-03T09:34:17.819Z,63.93
2022-12-03T09:36:45.613Z,62.17
2022-12-03T09:39:13.674Z,62.50
2022-12-03T09:41:42.780Z,63.20
2022-12-03T09:44:15.792Z,62.77
2022-12-03T09:46:46.686Z,59.87
2022-12-03T09:49:16.194Z,61.70
2022-12-03T09:51:44.922Z,59.67
2022-12-03T09:54:17.392Z,59.20
2022-12-03T09:56:47.485Z,60.47
2022-12-03T09:59:15.847Z,62.07
2022-12-03T10:01:44.076Z,63.13
2022-12-03T10:04:11.853Z,61.60
2022-12-03T10:06:45.566Z,59.90
2022-12-03T10:09:17.099Z,64.63
2022-12-03T10:11:44.929Z,62.67
2022-12-03T10:14:14.842Z,61.43
2022-12-03T10:16:42.956Z,62.67
2022-12-03T10:19:17.285Z,62.27
2022-12-03T10:21:44.897Z,63.10
2022-12-03T10:24:19.760Z,60.40
2022-12-03T10:26:48.245Z,61.20
2022-12-03T10:29:19.913Z,60.77
2022-12-03T10:31:55.625Z,61.43
2022-12-03T10:34:30.382Z,60.77
2022-12-03T10:37:25.187Z,62.00
2022-12-03T10:39:55.984Z,62.20
2022-12-03T10:42:24.970Z,59.77
2022-12-03T10:45:07.507Z,60.47
2022-12-03T10:47:35.264Z,71.10
2022-12-03T10:50:04.453Z,62.03
2022-12-03T10:52:32.124Z,61.23
2022-12-03T10:55:00.724Z,59.87
2022-12-03T10:57:28.297Z,58.07
2022-12-03T10:59:55.912Z,56.90
2022-12-03T11:02:25.937Z,57.30
2022-12-03T11:04:54.014Z,56.80
2022-12-03T11:07:22.582Z,54.60
2022-12-03T11:09:51.057Z,55.50
2022-12-03T11:12:20.399Z,56.23
2022-12-03T11:15:06.125Z,54.60
2022-12-03T11:17:46.209Z,55.90
2022-12-03T11:20:34.826Z,52.13
2022-12-03T11:23:02.607Z,54.93
2022-12-03T11:25:46.846Z,55.33
2022-12-03T11:28:47.560Z,57.40
2022-12-03T11:31:30.193Z,53.30
2022-12-03T11:34:26.858Z,52.50
2022-12-03T11:37:13.936Z,52.10
2022-12-03T11:39:56.896Z,53.00
2022-12-03T11:42:39.380Z,52.37
2022-12-03T11:45:17.017Z,51.13
2022-12-03T11:47:45.705Z,49.87
2022-12-03T11:50:20.424Z,49.07
2022-12-03T11:52:49.233Z,48.97
2022-12-03T11:55:18.135Z,48.13
2022-12-03T11:57:47.214Z,48.67
2022-12-03T12:00:18.428Z,49.00
2022-12-03T12:02:46.608Z,50.40
2022-12-03T12:05:18.843Z,47.10
2022-12-03T12:07:48.106Z,47.70
2022-12-03T12:10:35.621Z,46.73
2022-12-03T12:13:04.644Z,49.40
2022-12-03T12:15:45.218Z,47.67
2022-12-03T12:18:31.570Z,48.00
2022-12-03T12:21:14.104Z,48.37
2022-12-03T12:23:41.764Z,47.47
2022-12-03T12:26:09.736Z,46.47
2022-12-03T12:28:39.084Z,44.67
2022-12-03T12:31:11.551Z,49.07
2022-12-03T12:33:39.238Z,46.97
2022-12-03T12:36:09.270Z,46.47
2022-12-03T12:38:36.979Z,46.27
2022-12-03T12:41:07.785Z,46.10
2022-12-03T12:43:38.753Z,46.30
2022-12-03T12:46:46.145Z,45.57
2022-12-03T12:49:01.330Z,45.13
2022-12-03T12:51:29.029Z,46.60
2022-12-03T12:53:58.226Z,47.80
2022-12-03T12:56:27.296Z,47.60
2022-12-03T12:58:55.200Z,46.10
2022-12-03T13:01:26.765Z,48.40
2022-12-03T13:03:55.065Z,45.93
2022-12-03T13:06:24.661Z,46.60
2022-12-03T13:08:52.877Z,49.30
2022-12-03T13:11:27.222Z,47.40
2022-12-03T13:13:54.966Z,46.60
2022-12-03T13:16:26.202Z,48.30
2022-12-03T13:18:56.152Z,49.73
2022-12-03T13:21:25.242Z,48.97
2022-12-03T13:23:53.975Z,48.97
2022-12-03T13:26:34.681Z,47.10
2022-12-03T13:29:13.091Z,47.33
2022-12-03T13:31:44.222Z,48.60
2022-12-03T13:34:17.406Z,50.97
2022-12-03T13:36:45.831Z,49.87
2022-12-03T13:39:17.968Z,50.13
2022-12-03T13:42:03.227Z,48.67
2022-12-03T13:44:32.346Z,47.83
2022-12-03T13:47:02.151Z,47.60
2022-12-03T13:49:31.445Z,49.83
2022-12-03T13:51:59.689Z,48.50
2022-12-03T13:54:29.091Z,47.60
2022-12-03T13:56:57.140Z,47.00
2022-12-03T13:59:26.423Z,47.87
2022-12-03T14:01:54.877Z,49.40
2022-12-03T14:04:22.514Z,45.70
2022-12-03T14:06:52.105Z,45.50
2022-12-03T14:09:20.100Z,44.70
2022-12-03T14:12:05.144Z,47.90
2022-12-03T14:14:33.481Z,45.40
2022-12-03T14:17:01.174Z,42.90
2022-12-03T14:19:29.349Z,45.90
2022-12-03T14:21:58.296Z,47.07
2022-12-03T14:24:26.648Z,47.27
2022-12-03T14:26:54.303Z,44.23
2022-12-03T14:29:22.006Z,45.40
2022-12-03T14:31:49.957Z,45.00
2022-12-03T14:34:17.631Z,44.57
2022-12-03T14:36:45.926Z,42.07
2022-12-03T14:39:14.939Z,44.97
2022-12-03T14:42:00.489Z,45.00
2022-12-03T14:44:28.237Z,43.83
2022-12-03T14:46:57.547Z,41.50
2022-12-03T14:49:25.629Z,42.67
2022-12-03T14:51:53.319Z,43.37
2022-12-03T14:54:22.918Z,43.77
2022-12-03T14:56:50.831Z,44.00
2022-12-03T14:59:21.706Z,41.83
2022-12-03T15:01:53.833Z,41.33
2022-12-03T15:04:21.824Z,41.83
2022-12-03T15:06:49.486Z,41.23
2022-12-03T15:09:17.909Z,43.80
2022-12-03T15:11:47.005Z,42.63
2022-12-03T15:14:14.769Z,41.80
2022-12-03T15:16:42.499Z,42.10
2022-12-03T15:19:10.497Z,41.70
2022-12-03T15:21:40.560Z,41.90
2022-12-03T15:24:09.541Z,43.77
2022-12-03T15:26:37.293Z,43.23
2022-12-03T15:29:06.513Z,41.10
2022-12-03T15:31:34.277Z,41.67
2022-12-03T15:34:02.249Z,42.67
2022-12-03T15:36:29.889Z,42.57
2022-12-03T15:38:58.291Z,43.60
2022-12-03T15:41:29.114Z,43.10
2022-12-03T15:43:57.735Z,43.10
2022-12-03T15:46:27.827Z,43.50
2022-12-03T15:48:55.988Z,44.63
2022-12-03T15:51:23.669Z,43.23
2022-12-03T15:53:51.528Z,43.20
2022-12-03T15:56:19.257Z,42.53
2022-12-03T15:58:47.089Z,45.30
2022-12-03T16:01:15.011Z,44.77
2022-12-03T16:03:44.149Z,44.33
2022-12-03T16:06:12.552Z,45.07
2022-12-03T16:08:40.323Z,45.50
2022-12-03T16:11:08.323Z,46.40
2022-12-03T16:13:35.992Z,44.50
2022-12-03T16:16:03.650Z,44.87
2022-12-03T16:18:32.242Z,41.60
2022-12-03T16:21:01.377Z,44.37
2022-12-03T16:23:29.042Z,44.00
2022-12-03T16:25:57.485Z,44.23
2022-12-03T16:28:25.208Z,43.73
2022-12-03T16:30:53.396Z,42.53
2022-12-03T16:33:27.070Z,43.37
2022-12-03T16:35:55.738Z,42.30
2022-12-03T16:38:24.900Z,43.13
2022-12-03T16:40:52.679Z,41.53
2022-12-03T16:43:20.328Z,42.50
2022-12-03T16:46:20.351Z,42.10
2022-12-03T16:48:48.648Z,40.30
2022-12-03T16:51:16.560Z,42.37
2022-12-03T16:53:46.163Z,41.50
2022-12-03T16:56:13.942Z,41.10
2022-12-03T16:58:41.596Z,42.20
2022-12-03T17:01:09.994Z,40.33
2022-12-03T17:03:37.696Z,42.30
2022-12-03T17:06:06.018Z,43.07
2022-12-03T17:08:33.660Z,41.90
2022-12-03T17:11:04.334Z,42.73
2022-12-03T17:13:32.257Z,40.30
2022-12-03T17:16:00.864Z,40.30
2022-12-03T17:18:28.769Z,41.80
2022-12-03T17:20:56.296Z,42.30
2022-12-03T17:23:24.522Z,40.93
2022-12-03T17:25:52.198Z,43.37
2022-12-03T17:28:22.198Z,39.97
2022-12-03T17:30:50.795Z,41.83
2022-12-03T17:33:18.724Z,40.83
2022-12-03T17:35:46.759Z,42.03
2022-12-03T17:38:14.350Z,42.30
2022-12-03T17:40:42.604Z,41.50
2022-12-03T17:43:10.262Z,41.73
2022-12-03T17:45:39.701Z,41.83
2022-12-03T17:48:08.376Z,40.33
2022-12-03T17:50:36.069Z,43.10
2022-12-03T17:53:05.392Z,40.63
2022-12-03T17:55:38.560Z,42.20
2022-12-03T17:58:10.569Z,41.00
2022-12-03T18:00:39.862Z,41.70
2022-12-03T18:03:07.857Z,41.77
2022-12-03T18:05:35.973Z,42.43
2022-12-03T18:08:04.424Z,41.73
2022-12-03T18:10:32.103Z,41.67
2022-12-03T18:13:02.126Z,41.33
2022-12-03T18:15:30.970Z,42.33
2022-12-03T18:17:59.958Z,42.53
2022-12-03T18:20:27.651Z,40.73
2022-12-03T18:22:55.579Z,43.17
2022-12-03T18:25:23.201Z,42.40
2022-12-03T18:27:50.941Z,42.10
2022-12-03T18:30:19.545Z,41.87
2022-12-03T18:32:47.743Z,43.60
2022-12-03T18:35:16.762Z,42.63
2022-12-03T18:37:44.713Z,42.23
2022-12-03T18:40:17.551Z,41.07
2022-12-03T18:42:45.552Z,44.00
2022-12-03T18:45:14.751Z,42.53
2022-12-03T18:47:42.708Z,45.10
2022-12-03T18:50:11.372Z,41.97
2022-12-03T18:52:40.614Z,46.13
2022-12-03T18:55:09.057Z,43.50
2022-12-03T18:57:37.145Z,43.77
2022-12-03T19:00:11.807Z,43.43
2022-12-03T19:05:29.175Z,45.80
2022-12-03T19:07:58.440Z,44.87
2022-12-03T19:10:26.533Z,41.17
2022-12-03T19:12:54.137Z,41.87
2022-12-03T19:15:22.781Z,44.30
2022-12-03T19:17:51.038Z,44.03
2022-12-03T19:20:18.816Z,44.73
2022-12-03T19:22:46.505Z,43.60
2022-12-03T19:25:16.189Z,45.40
2022-12-03T19:27:44.203Z,44.03
2022-12-03T19:30:12.743Z,44.33
2022-12-03T19:32:41.204Z,44.30
2022-12-03T19:35:11.164Z,45.50
2022-12-03T19:37:39.445Z,43.07
2022-12-03T19:40:10.198Z,43.93
2022-12-03T19:42:39.792Z,43.83
2022-12-03T19:45:08.006Z,44.13
2022-12-03T19:47:36.288Z,46.30
2022-12-03T19:50:03.944Z,45.03
2022-12-03T19:52:31.892Z,44.30
2022-12-03T19:54:59.595Z,45.40
2022-12-03T19:57:27.399Z,44.43
2022-12-03T19:59:56.474Z,44.83
2022-12-03T20:02:24.584Z,46.90
2022-12-03T20:04:52.629Z,48.23
2022-12-03T20:07:20.399Z,46.63
2022-12-03T20:09:50.432Z,46.53
2022-12-03T20:12:18.454Z,44.83
2022-12-03T20:14:46.440Z,48.27
2022-12-03T20:17:15.469Z,44.10
2022-12-03T20:19:43.435Z,48.87
2022-12-03T20:22:11.192Z,45.17
2022-12-03T20:24:38.937Z,42.30
2022-12-03T20:27:06.614Z,45.23
2022-12-03T20:29:34.624Z,45.43
2022-12-03T20:32:03.869Z,46.17
2022-12-03T20:34:34.396Z,46.40
2022-12-03T20:37:02.001Z,47.60
2022-12-03T20:39:29.611Z,47.40
2022-12-03T20:41:57.221Z,46.47
2022-12-03T20:44:24.855Z,47.47
2022-12-03T20:46:53.330Z,47.40
2022-12-03T20:49:21.008Z,47.30
2022-12-03T20:51:51.361Z,49.17
2022-12-03T20:54:18.990Z,47.50
2022-12-03T20:56:46.620Z,45.33
2022-12-03T20:59:16.142Z,47.23
2022-12-03T21:01:44.482Z,47.53
2022-12-03T21:04:14.567Z,46.00
2022-12-03T21:06:42.686Z,47.17
2022-12-03T21:09:12.144Z,48.73
2022-12-03T21:11:41.401Z,47.87
2022-12-03T21:14:09.197Z,47.00
2022-12-03T21:17:06.578Z,47.87
2022-12-03T21:19:27.016Z,49.27
2022-12-03T21:21:55.674Z,49.13
2022-12-03T21:24:24.861Z,48.57
2022-12-03T21:26:54.524Z,49.37
2022-12-03T21:29:23.872Z,48.17
2022-12-03T21:31:51.510Z,49.10
2022-12-03T21:34:19.706Z,46.70
2022-12-03T21:36:47.254Z,50.50
2022-12-03T21:39:14.935Z,50.20
2022-12-03T21:42:18.847Z,47.80
2022-12-03T21:44:32.006Z,49.00
2022-12-03T21:47:11.574Z,49.13
2022-12-03T21:49:42.833Z,51.33
2022-12-03T21:52:10.745Z,48.70
2022-12-03T21:54:38.404Z,50.33
2022-12-03T21:57:07.350Z,50.60
2022-12-03T21:59:35.174Z,48.77
2022-12-03T22:02:03.035Z,49.63
2022-12-03T22:04:31.053Z,51.47
2022-12-03T22:06:58.801Z,49.90
2022-12-03T22:09:27.021Z,51.37
2022-12-03T22:11:56.778Z,48.70
2022-12-03T22:14:26.067Z,50.77
2022-12-03T22:16:54.122Z,51.17
2022-12-03T22:19:22.718Z,49.63
2022-12-03T22:21:51.010Z,50.10
2022-12-03T22:24:19.378Z,49.33
2022-12-03T22:26:47.381Z,50.73
2022-12-03T22:29:15.478Z,50.43
2022-12-03T22:31:44.985Z,50.97
2022-12-03T22:34:13.806Z,48.90
2022-12-03T22:36:41.588Z,50.07
2022-12-03T22:39:09.308Z,50.10
2022-12-03T22:41:36.924Z,50.90
2022-12-03T22:44:04.665Z,50.40
2022-12-03T22:46:32.322Z,50.00
2022-12-03T22:49:06.858Z,51.90
2022-12-03T22:51:35.586Z,51.57
2022-12-03T22:54:03.879Z,50.60
2022-12-03T22:56:31.575Z,49.00
2022-12-03T22:58:59.219Z,48.67
2022-12-03T23:01:28.146Z,50.60
2022-12-03T23:03:55.975Z,49.30
2022-12-03T23:06:25.799Z,49.70
2022-12-03T23:08:53.403Z,51.67
2022-12-03T23:11:21.589Z,49.70
2022-12-03T23:13:49.275Z,53.23
2022-12-03T23:16:18.141Z,50.60
2022-12-03T23:18:45.888Z,53.00
2022-12-03T23:21:15.941Z,52.60
2022-12-03T23:23:44.944Z,50.43
2022-12-03T23:26:13.814Z,51.03
2022-12-03T23:28:41.916Z,52.33
2022-12-03T23:31:15.766Z,53.00
2022-12-03T23:33:43.665Z,49.10
2022-12-03T23:36:11.716Z,50.40
2022-12-03T23:38:39.454Z,51.87
2022-12-03T23:41:09.491Z,50.77
2022-12-03T23:43:37.142Z,52.27
2022-12-03T23:46:05.573Z,50.47
2022-12-03T23:48:33.482Z,52.37
2022-12-03T23:51:01.143Z,52.33
2022-12-03T23:53:30.636Z,52.20
2022-12-03T23:55:58.288Z,52.07
2022-12-03T23:58:27.398Z,50.70
